In Rescue
 
Open Full Screen Window  High Contrast Mode
Wind Gusting 14 knots
10
November 29, 2022 9:11 AM CST
Present Weather: Light Snow
Weather Information
Wind Direction
  360 °
Wind Speed
  10 kt (12 mph)
Wind Gust
  14 kt (16 mph)
Altimeter
29.65 in
Visibility
1 SM
Temperature
-02° C
28° F
Dewpoint
-03° C
27° F
Humidity
93%
1hr Rain Fall
00.00 in.
24hr Rain Fall
00.00 in.
Sky Condition
Overcast @ 500 ft
IFR

METAR KSYN 291511Z AUTO 36010G14KT 1SM -SN OVC005 M02/M03 A2965 RMK AO2 T10211032

FAA Disclaimer: The data displayed is for advisory purposes only and is not to be used for flight planning or operations.